sensor_id;sensor_type;location;lat;lon;timestamp;P1;durP1;ratioP1;P2;durP2;ratioP2
19173;SDS011;9719;49.322;8.536;2023-02-22T00:00:40;9.27;;;7.90;;
19173;SDS011;9719;49.322;8.536;2023-02-22T00:05:43;9.87;;;8.17;;
19173;SDS011;9719;49.322;8.536;2023-02-22T00:10:46;8.33;;;7.43;;
19173;SDS011;9719;49.322;8.536;2023-02-22T00:15:51;10.67;;;7.67;;
19173;SDS011;9719;49.322;8.536;2023-02-22T00:20:54;10.53;;;8.57;;
19173;SDS011;9719;49.322;8.536;2023-02-22T00:25:58;8.77;;;7.87;;
19173;SDS011;9719;49.322;8.536;2023-02-22T00:31:02;8.70;;;7.73;;
19173;SDS011;9719;49.322;8.536;2023-02-22T00:36:06;13.47;;;7.97;;
19173;SDS011;9719;49.322;8.536;2023-02-22T00:41:08;8.40;;;7.60;;
19173;SDS011;9719;49.322;8.536;2023-02-22T00:46:13;8.70;;;7.87;;
19173;SDS011;9719;49.322;8.536;2023-02-22T00:51:15;11.50;;;8.23;;
19173;SDS011;9719;49.322;8.536;2023-02-22T00:56:17;8.70;;;7.57;;
19173;SDS011;9719;49.322;8.536;2023-02-22T01:01:20;10.17;;;9.10;;
19173;SDS011;9719;49.322;8.536;2023-02-22T01:06:23;7.73;;;6.93;;
19173;SDS011;9719;49.322;8.536;2023-02-22T01:11:25;11.47;;;8.30;;
19173;SDS011;9719;49.322;8.536;2023-02-22T01:16:28;13.93;;;8.53;;
19173;SDS011;9719;49.322;8.536;2023-02-22T01:21:30;8.83;;;7.83;;
19173;SDS011;9719;49.322;8.536;2023-02-22T01:26:32;11.33;;;8.90;;
19173;SDS011;9719;49.322;8.536;2023-02-22T01:31:35;9.17;;;8.27;;
19173;SDS011;9719;49.322;8.536;2023-02-22T01:36:37;11.53;;;8.70;;
19173;SDS011;9719;49.322;8.536;2023-02-22T01:41:39;11.70;;;7.70;;
19173;SDS011;9719;49.322;8.536;2023-02-22T01:46:42;9.00;;;8.10;;
19173;SDS011;9719;49.322;8.536;2023-02-22T01:51:45;7.67;;;6.93;;
19173;SDS011;9719;49.322;8.536;2023-02-22T01:56:58;9.33;;;7.67;;
19173;SDS011;9719;49.322;8.536;2023-02-22T02:02:07;7.87;;;7.07;;
19173;SDS011;9719;49.322;8.536;2023-02-22T02:07:10;8.53;;;7.23;;
19173;SDS011;9719;49.322;8.536;2023-02-22T02:12:15;9.53;;;8.40;;
19173;SDS011;9719;49.322;8.536;2023-02-22T02:17:20;10.43;;;9.33;;
19173;SDS011;9719;49.322;8.536;2023-02-22T02:22:27;8.30;;;7.40;;
19173;SDS011;9719;49.322;8.536;2023-02-22T02:27:45;11.53;;;9.47;;
19173;SDS011;9719;49.322;8.536;2023-02-22T02:33:03;8.83;;;7.37;;
19173;SDS011;9719;49.322;8.536;2023-02-22T02:38:14;13.77;;;9.73;;
19173;SDS011;9719;49.322;8.536;2023-02-22T02:43:23;10.17;;;7.43;;
19173;SDS011;9719;49.322;8.536;2023-02-22T02:48:33;11.83;;;9.17;;
19173;SDS011;9719;49.322;8.536;2023-02-22T02:53:36;10.57;;;8.33;;
19173;SDS011;9719;49.322;8.536;2023-02-22T02:58:44;10.30;;;7.87;;
19173;SDS011;9719;49.322;8.536;2023-02-22T03:03:52;12.57;;;8.60;;
19173;SDS011;9719;49.322;8.536;2023-02-22T03:09:07;9.67;;;7.63;;
19173;SDS011;9719;49.322;8.536;2023-02-22T03:14:18;8.47;;;6.67;;
19173;SDS011;9719;49.322;8.536;2023-02-22T03:19:29;10.07;;;7.47;;
19173;SDS011;9719;49.322;8.536;2023-02-22T03:24:37;7.90;;;6.73;;
19173;SDS011;9719;49.322;8.536;2023-02-22T03:29:45;10.53;;;6.60;;
19173;SDS011;9719;49.322;8.536;2023-02-22T03:34:52;8.23;;;6.43;;
19173;SDS011;9719;49.322;8.536;2023-02-22T03:39:58;8.20;;;7.50;;
19173;SDS011;9719;49.322;8.536;2023-02-22T03:45:13;7.90;;;6.57;;
19173;SDS011;9719;49.322;8.536;2023-02-22T03:50:19;9.70;;;7.47;;
19173;SDS011;9719;49.322;8.536;2023-02-22T03:55:25;7.37;;;6.67;;
19173;SDS011;9719;49.322;8.536;2023-02-22T04:00:28;8.33;;;7.20;;
19173;SDS011;9719;49.322;8.536;2023-02-22T04:05:33;6.63;;;5.87;;
19173;SDS011;9719;49.322;8.536;2023-02-22T04:10:35;8.97;;;7.00;;
19173;SDS011;9719;49.322;8.536;2023-02-22T04:15:37;12.10;;;7.67;;
19173;SDS011;9719;49.322;8.536;2023-02-22T04:20:40;8.03;;;6.10;;
19173;SDS011;9719;49.322;8.536;2023-02-22T04:25:43;8.70;;;6.90;;
19173;SDS011;9719;49.322;8.536;2023-02-22T04:30:45;8.87;;;6.47;;
19173;SDS011;9719;49.322;8.536;2023-02-22T04:35:48;7.73;;;7.03;;
19173;SDS011;9719;49.322;8.536;2023-02-22T04:40:51;7.57;;;6.53;;
19173;SDS011;9719;49.322;8.536;2023-02-22T04:45:53;12.80;;;7.67;;
19173;SDS011;9719;49.322;8.536;2023-02-22T04:50:56;10.33;;;7.63;;
19173;SDS011;9719;49.322;8.536;2023-02-22T04:55:58;7.97;;;7.17;;
19173;SDS011;9719;49.322;8.536;2023-02-22T05:01:00;8.63;;;7.70;;
19173;SDS011;9719;49.322;8.536;2023-02-22T05:06:04;7.30;;;6.53;;
19173;SDS011;9719;49.322;8.536;2023-02-22T05:11:06;8.93;;;7.63;;
19173;SDS011;9719;49.322;8.536;2023-02-22T05:16:08;7.40;;;6.70;;
19173;SDS011;9719;49.322;8.536;2023-02-22T05:21:12;8.17;;;6.57;;
19173;SDS011;9719;49.322;8.536;2023-02-22T05:26:13;7.77;;;6.60;;
19173;SDS011;9719;49.322;8.536;2023-02-22T05:31:15;10.77;;;7.90;;
19173;SDS011;9719;49.322;8.536;2023-02-22T05:36:18;8.90;;;8.00;;
19173;SDS011;9719;49.322;8.536;2023-02-22T05:41:20;10.17;;;7.37;;
19173;SDS011;9719;49.322;8.536;2023-02-22T05:46:22;9.90;;;7.27;;
19173;SDS011;9719;49.322;8.536;2023-02-22T05:51:25;8.30;;;7.23;;
19173;SDS011;9719;49.322;8.536;2023-02-22T05:56:27;8.53;;;7.63;;
19173;SDS011;9719;49.322;8.536;2023-02-22T06:01:30;6.83;;;6.20;;
19173;SDS011;9719;49.322;8.536;2023-02-22T06:06:33;9.07;;;7.03;;
19173;SDS011;9719;49.322;8.536;2023-02-22T06:11:35;8.83;;;7.90;;
19173;SDS011;9719;49.322;8.536;2023-02-22T06:16:37;7.07;;;6.37;;
19173;SDS011;9719;49.322;8.536;2023-02-22T06:21:40;9.07;;;7.07;;
19173;SDS011;9719;49.322;8.536;2023-02-22T06:26:53;7.90;;;6.93;;
19173;SDS011;9719;49.322;8.536;2023-02-22T06:31:56;7.70;;;6.90;;
19173;SDS011;9719;49.322;8.536;2023-02-22T06:36:59;8.87;;;6.07;;
19173;SDS011;9719;49.322;8.536;2023-02-22T06:42:00;7.77;;;6.93;;
19173;SDS011;9719;49.322;8.536;2023-02-22T06:47:02;8.87;;;7.97;;
19173;SDS011;9719;49.322;8.536;2023-02-22T06:52:05;8.07;;;7.10;;
19173;SDS011;9719;49.322;8.536;2023-02-22T06:57:08;10.80;;;7.77;;
19173;SDS011;9719;49.322;8.536;2023-02-22T07:02:11;11.97;;;9.13;;
19173;SDS011;9719;49.322;8.536;2023-02-22T07:07:14;13.33;;;11.23;;
19173;SDS011;9719;49.322;8.536;2023-02-22T07:12:16;14.00;;;11.20;;
19173;SDS011;9719;49.322;8.536;2023-02-22T07:17:18;13.90;;;12.17;;
19173;SDS011;9719;49.322;8.536;2023-02-22T07:22:21;11.60;;;9.83;;
19173;SDS011;9719;49.322;8.536;2023-02-22T07:27:23;13.13;;;11.57;;
19173;SDS011;9719;49.322;8.536;2023-02-22T07:32:25;13.47;;;9.90;;
19173;SDS011;9719;49.322;8.536;2023-02-22T07:37:28;12.30;;;11.10;;
19173;SDS011;9719;49.322;8.536;2023-02-22T07:42:30;11.13;;;10.03;;
19173;SDS011;9719;49.322;8.536;2023-02-22T07:47:32;10.83;;;9.10;;
19173;SDS011;9719;49.322;8.536;2023-02-22T07:52:35;10.20;;;9.10;;
19173;SDS011;9719;49.322;8.536;2023-02-22T07:57:37;10.43;;;8.93;;
19173;SDS011;9719;49.322;8.536;2023-02-22T08:02:38;11.03;;;8.67;;
19173;SDS011;9719;49.322;8.536;2023-02-22T08:07:42;10.63;;;9.53;;
19173;SDS011;9719;49.322;8.536;2023-02-22T08:12:43;9.60;;;8.60;;
19173;SDS011;9719;49.322;8.536;2023-02-22T08:17:45;9.97;;;8.33;;
19173;SDS011;9719;49.322;8.536;2023-02-22T08:22:48;9.93;;;8.93;;
19173;SDS011;9719;49.322;8.536;2023-02-22T08:27:51;8.27;;;7.33;;
19173;SDS011;9719;49.322;8.536;2023-02-22T08:32:57;8.33;;;7.63;;
19173;SDS011;9719;49.322;8.536;2023-02-22T08:38:03;8.30;;;7.33;;
19173;SDS011;9719;49.322;8.536;2023-02-22T08:43:06;10.07;;;8.00;;
19173;SDS011;9719;49.322;8.536;2023-02-22T08:48:08;7.47;;;6.70;;
19173;SDS011;9719;49.322;8.536;2023-02-22T08:53:11;9.63;;;6.73;;
19173;SDS011;9719;49.322;8.536;2023-02-22T08:58:14;8.30;;;7.10;;
19173;SDS011;9719;49.322;8.536;2023-02-22T09:03:16;7.80;;;6.83;;
19173;SDS011;9719;49.322;8.536;2023-02-22T09:08:19;8.90;;;7.27;;
19173;SDS011;9719;49.322;8.536;2023-02-22T09:13:21;8.43;;;7.53;;
19173;SDS011;9719;49.322;8.536;2023-02-22T09:18:23;9.47;;;7.27;;
19173;SDS011;9719;49.322;8.536;2023-02-22T09:23:28;7.72;;;7.03;;
19173;SDS011;9719;49.322;8.536;2023-02-22T09:28:30;9.45;;;7.30;;
19173;SDS011;9719;49.322;8.536;2023-02-22T09:33:32;8.40;;;7.60;;
19173;SDS011;9719;49.322;8.536;2023-02-22T09:38:35;8.63;;;7.00;;
19173;SDS011;9719;49.322;8.536;2023-02-22T09:43:37;7.28;;;6.50;;
19173;SDS011;9719;49.322;8.536;2023-02-22T09:48:50;7.13;;;6.18;;
19173;SDS011;9719;49.322;8.536;2023-02-22T09:53:59;7.00;;;5.88;;
19173;SDS011;9719;49.322;8.536;2023-02-22T09:59:04;7.72;;;6.85;;
19173;SDS011;9719;49.322;8.536;2023-02-22T10:04:10;6.88;;;6.28;;
19173;SDS011;9719;49.322;8.536;2023-02-22T10:09:19;10.95;;;7.30;;
19173;SDS011;9719;49.322;8.536;2023-02-22T10:14:29;8.23;;;6.40;;
19173;SDS011;9719;49.322;8.536;2023-02-22T10:19:49;7.10;;;6.43;;
19173;SDS011;9719;49.322;8.536;2023-02-22T10:25:07;8.85;;;6.95;;
19173;SDS011;9719;49.322;8.536;2023-02-22T10:30:13;7.68;;;6.28;;
19173;SDS011;9719;49.322;8.536;2023-02-22T10:35:21;5.82;;;5.28;;
19173;SDS011;9719;49.322;8.536;2023-02-22T10:40:26;7.10;;;5.97;;
19173;SDS011;9719;49.322;8.536;2023-02-22T10:45:32;8.57;;;6.60;;
19173;SDS011;9719;49.322;8.536;2023-02-22T10:50:36;6.15;;;5.60;;
19173;SDS011;9719;49.322;8.536;2023-02-22T11:01:21;10.77;;;6.55;;
19173;SDS011;9719;49.322;8.536;2023-02-22T11:06:26;7.95;;;7.15;;
19173;SDS011;9719;49.322;8.536;2023-02-22T11:11:30;6.68;;;6.05;;
19173;SDS011;9719;49.322;8.536;2023-02-22T11:16:33;6.88;;;6.18;;
19173;SDS011;9719;49.322;8.536;2023-02-22T11:21:37;8.43;;;6.82;;
19173;SDS011;9719;49.322;8.536;2023-02-22T11:26:42;8.25;;;7.13;;
19173;SDS011;9719;49.322;8.536;2023-02-22T11:31:45;7.05;;;6.45;;
19173;SDS011;9719;49.322;8.536;2023-02-22T11:36:49;7.72;;;6.93;;
19173;SDS011;9719;49.322;8.536;2023-02-22T11:41:53;7.75;;;7.05;;
19173;SDS011;9719;49.322;8.536;2023-02-22T11:46:57;7.18;;;6.45;;
19173;SDS011;9719;49.322;8.536;2023-02-22T11:52:09;6.93;;;6.22;;
19173;SDS011;9719;49.322;8.536;2023-02-22T11:57:26;9.25;;;6.97;;
19173;SDS011;9719;49.322;8.536;2023-02-22T12:02:43;6.70;;;6.18;;
19173;SDS011;9719;49.322;8.536;2023-02-22T12:08:06;7.03;;;6.38;;
19173;SDS011;9719;49.322;8.536;2023-02-22T12:13:24;7.32;;;6.57;;
19173;SDS011;9719;49.322;8.536;2023-02-22T12:18:36;7.57;;;6.93;;
19173;SDS011;9719;49.322;8.536;2023-02-22T12:23:46;7.82;;;7.13;;
19173;SDS011;9719;49.322;8.536;2023-02-22T12:28:55;7.50;;;6.78;;
19173;SDS011;9719;49.322;8.536;2023-02-22T12:34:05;7.97;;;7.28;;
19173;SDS011;9719;49.322;8.536;2023-02-22T12:39:25;8.30;;;7.32;;
19173;SDS011;9719;49.322;8.536;2023-02-22T12:44:38;8.73;;;8.00;;
19173;SDS011;9719;49.322;8.536;2023-02-22T12:49:44;7.43;;;6.75;;
19173;SDS011;9719;49.322;8.536;2023-02-22T12:54:53;8.52;;;7.75;;
19173;SDS011;9719;49.322;8.536;2023-02-22T13:00:01;8.35;;;7.55;;
19173;SDS011;9719;49.322;8.536;2023-02-22T13:05:11;8.02;;;7.30;;
19173;SDS011;9719;49.322;8.536;2023-02-22T13:10:20;7.50;;;6.90;;
19173;SDS011;9719;49.322;8.536;2023-02-22T13:15:35;7.13;;;6.50;;
19173;SDS011;9719;49.322;8.536;2023-02-22T13:20:44;8.18;;;7.45;;
19173;SDS011;9719;49.322;8.536;2023-02-22T13:25:51;8.00;;;7.30;;
19173;SDS011;9719;49.322;8.536;2023-02-22T13:31:05;9.15;;;7.20;;
19173;SDS011;9719;49.322;8.536;2023-02-22T13:36:20;7.65;;;6.82;;
19173;SDS011;9719;49.322;8.536;2023-02-22T13:47:08;9.45;;;8.45;;
19173;SDS011;9719;49.322;8.536;2023-02-22T13:52:33;7.72;;;6.90;;
19173;SDS011;9719;49.322;8.536;2023-02-22T13:57:39;7.10;;;6.38;;
19173;SDS011;9719;49.322;8.536;2023-02-22T14:02:59;7.30;;;5.90;;
19173;SDS011;9719;49.322;8.536;2023-02-22T14:08:05;7.43;;;6.72;;
19173;SDS011;9719;49.322;8.536;2023-02-22T14:13:08;6.43;;;5.70;;
19173;SDS011;9719;49.322;8.536;2023-02-22T14:18:15;11.82;;;7.28;;
19173;SDS011;9719;49.322;8.536;2023-02-22T14:23:31;7.68;;;6.60;;
19173;SDS011;9719;49.322;8.536;2023-02-22T14:28:40;7.97;;;6.38;;
19173;SDS011;9719;49.322;8.536;2023-02-22T14:33:54;7.20;;;5.80;;
19173;SDS011;9719;49.322;8.536;2023-02-22T14:39:06;8.82;;;5.90;;
19173;SDS011;9719;49.322;8.536;2023-02-22T14:44:14;11.02;;;8.32;;
19173;SDS011;9719;49.322;8.536;2023-02-22T14:49:22;7.32;;;6.20;;
19173;SDS011;9719;49.322;8.536;2023-02-22T14:54:29;17.27;;;6.43;;
19173;SDS011;9719;49.322;8.536;2023-02-22T14:59:36;8.57;;;5.78;;
19173;SDS011;9719;49.322;8.536;2023-02-22T15:04:54;7.88;;;7.07;;
19173;SDS011;9719;49.322;8.536;2023-02-22T15:10:07;8.13;;;5.20;;
19173;SDS011;9719;49.322;8.536;2023-02-22T15:15:21;6.85;;;4.80;;
19173;SDS011;9719;49.322;8.536;2023-02-22T15:20:25;8.05;;;6.15;;
19173;SDS011;9719;49.322;8.536;2023-02-22T15:25:28;7.78;;;6.65;;
19173;SDS011;9719;49.322;8.536;2023-02-22T15:30:31;8.80;;;6.72;;
19173;SDS011;9719;49.322;8.536;2023-02-22T15:35:35;8.45;;;6.32;;
19173;SDS011;9719;49.322;8.536;2023-02-22T15:40:38;7.45;;;6.22;;
19173;SDS011;9719;49.322;8.536;2023-02-22T15:45:42;12.40;;;7.25;;
19173;SDS011;9719;49.322;8.536;2023-02-22T15:51:03;8.80;;;6.63;;
19173;SDS011;9719;49.322;8.536;2023-02-22T15:56:09;10.57;;;6.65;;
19173;SDS011;9719;49.322;8.536;2023-02-22T16:01:14;12.60;;;6.75;;
19173;SDS011;9719;49.322;8.536;2023-02-22T16:06:23;9.93;;;8.43;;
19173;SDS011;9719;49.322;8.536;2023-02-22T16:11:29;14.48;;;7.45;;
19173;SDS011;9719;49.322;8.536;2023-02-22T16:16:34;8.18;;;6.75;;
19173;SDS011;9719;49.322;8.536;2023-02-22T16:21:51;8.93;;;7.57;;
19173;SDS011;9719;49.322;8.536;2023-02-22T16:27:03;11.18;;;7.32;;
19173;SDS011;9719;49.322;8.536;2023-02-22T16:32:08;10.43;;;7.00;;
19173;SDS011;9719;49.322;8.536;2023-02-22T16:37:19;10.20;;;7.07;;
19173;SDS011;9719;49.322;8.536;2023-02-22T16:42:27;8.30;;;6.88;;
19173;SDS011;9719;49.322;8.536;2023-02-22T16:47:29;11.27;;;7.38;;
19173;SDS011;9719;49.322;8.536;2023-02-22T16:52:32;10.75;;;7.80;;
19173;SDS011;9719;49.322;8.536;2023-02-22T16:57:34;11.68;;;7.72;;
19173;SDS011;9719;49.322;8.536;2023-02-22T17:02:39;9.27;;;7.07;;
19173;SDS011;9719;49.322;8.536;2023-02-22T17:07:42;10.95;;;7.05;;
19173;SDS011;9719;49.322;8.536;2023-02-22T17:12:44;10.57;;;8.27;;
19173;SDS011;9719;49.322;8.536;2023-02-22T17:17:48;9.32;;;7.30;;
19173;SDS011;9719;49.322;8.536;2023-02-22T17:22:52;11.60;;;7.93;;
19173;SDS011;9719;49.322;8.536;2023-02-22T17:27:54;8.35;;;6.90;;
19173;SDS011;9719;49.322;8.536;2023-02-22T17:32:55;10.98;;;9.00;;
19173;SDS011;9719;49.322;8.536;2023-02-22T17:38:04;17.42;;;12.57;;
19173;SDS011;9719;49.322;8.536;2023-02-22T17:43:06;18.98;;;15.45;;
19173;SDS011;9719;49.322;8.536;2023-02-22T17:48:08;10.50;;;8.45;;
19173;SDS011;9719;49.322;8.536;2023-02-22T17:53:12;12.35;;;8.52;;
19173;SDS011;9719;49.322;8.536;2023-02-22T17:58:14;12.95;;;9.45;;
19173;SDS011;9719;49.322;8.536;2023-02-22T18:03:17;10.80;;;9.70;;
19173;SDS011;9719;49.322;8.536;2023-02-22T18:08:25;12.52;;;10.50;;
19173;SDS011;9719;49.322;8.536;2023-02-22T18:13:30;12.10;;;9.77;;
19173;SDS011;9719;49.322;8.536;2023-02-22T18:18:31;9.80;;;8.75;;
19173;SDS011;9719;49.322;8.536;2023-02-22T18:23:35;11.88;;;9.73;;
19173;SDS011;9719;49.322;8.536;2023-02-22T18:28:37;12.95;;;10.50;;
19173;SDS011;9719;49.322;8.536;2023-02-22T18:33:39;10.88;;;9.77;;
19173;SDS011;9719;49.322;8.536;2023-02-22T18:38:43;12.27;;;11.10;;
19173;SDS011;9719;49.322;8.536;2023-02-22T18:43:45;12.48;;;11.18;;
19173;SDS011;9719;49.322;8.536;2023-02-22T18:48:50;18.05;;;12.32;;
19173;SDS011;9719;49.322;8.536;2023-02-22T18:53:55;14.02;;;12.30;;
19173;SDS011;9719;49.322;8.536;2023-02-22T18:59:00;13.65;;;11.73;;
19173;SDS011;9719;49.322;8.536;2023-02-22T19:04:04;14.88;;;12.07;;
19173;SDS011;9719;49.322;8.536;2023-02-22T19:09:09;15.05;;;12.02;;
19173;SDS011;9719;49.322;8.536;2023-02-22T19:14:11;13.70;;;12.10;;
19173;SDS011;9719;49.322;8.536;2023-02-22T19:19:15;14.75;;;11.88;;
19173;SDS011;9719;49.322;8.536;2023-02-22T19:24:21;12.63;;;10.38;;
19173;SDS011;9719;49.322;8.536;2023-02-22T19:29:23;13.55;;;10.98;;
19173;SDS011;9719;49.322;8.536;2023-02-22T19:34:24;12.75;;;11.38;;
19173;SDS011;9719;49.322;8.536;2023-02-22T19:39:27;16.08;;;11.45;;
19173;SDS011;9719;49.322;8.536;2023-02-22T19:44:29;17.83;;;13.40;;
19173;SDS011;9719;49.322;8.536;2023-02-22T19:49:32;16.80;;;13.57;;
19173;SDS011;9719;49.322;8.536;2023-02-22T19:54:36;17.08;;;14.00;;
19173;SDS011;9719;49.322;8.536;2023-02-22T19:59:38;21.85;;;14.63;;
19173;SDS011;9719;49.322;8.536;2023-02-22T20:04:40;17.70;;;13.97;;
19173;SDS011;9719;49.322;8.536;2023-02-22T20:09:43;17.63;;;14.57;;
19173;SDS011;9719;49.322;8.536;2023-02-22T20:14:45;16.55;;;14.18;;
19173;SDS011;9719;49.322;8.536;2023-02-22T20:19:47;19.67;;;15.07;;
19173;SDS011;9719;49.322;8.536;2023-02-22T20:24:51;16.90;;;13.63;;
19173;SDS011;9719;49.322;8.536;2023-02-22T20:29:52;15.23;;;13.07;;
19173;SDS011;9719;49.322;8.536;2023-02-22T20:34:54;16.60;;;13.77;;
19173;SDS011;9719;49.322;8.536;2023-02-22T20:39:57;17.70;;;14.03;;
19173;SDS011;9719;49.322;8.536;2023-02-22T20:45:00;20.92;;;17.15;;
19173;SDS011;9719;49.322;8.536;2023-02-22T20:50:04;22.33;;;17.30;;
19173;SDS011;9719;49.322;8.536;2023-02-22T20:55:08;20.73;;;17.48;;
19173;SDS011;9719;49.322;8.536;2023-02-22T21:00:11;23.58;;;17.67;;
19173;SDS011;9719;49.322;8.536;2023-02-22T21:05:14;24.40;;;18.20;;
19173;SDS011;9719;49.322;8.536;2023-02-22T21:10:18;22.65;;;18.48;;
19173;SDS011;9719;49.322;8.536;2023-02-22T21:15:21;30.10;;;19.92;;
19173;SDS011;9719;49.322;8.536;2023-02-22T21:20:24;24.73;;;18.87;;
19173;SDS011;9719;49.322;8.536;2023-02-22T21:25:28;18.67;;;15.75;;
19173;SDS011;9719;49.322;8.536;2023-02-22T21:30:31;20.27;;;16.13;;
19173;SDS011;9719;49.322;8.536;2023-02-22T21:35:33;19.23;;;15.20;;
19173;SDS011;9719;49.322;8.536;2023-02-22T21:40:37;19.52;;;15.32;;
19173;SDS011;9719;49.322;8.536;2023-02-22T21:45:39;17.25;;;15.23;;
19173;SDS011;9719;49.322;8.536;2023-02-22T21:50:40;19.80;;;15.55;;
19173;SDS011;9719;49.322;8.536;2023-02-22T21:55:44;17.60;;;15.23;;
19173;SDS011;9719;49.322;8.536;2023-02-22T22:00:45;17.77;;;14.30;;
19173;SDS011;9719;49.322;8.536;2023-02-22T22:05:47;16.00;;;14.32;;
19173;SDS011;9719;49.322;8.536;2023-02-22T22:10:51;16.63;;;14.10;;
19173;SDS011;9719;49.322;8.536;2023-02-22T22:15:54;19.05;;;15.07;;
19173;SDS011;9719;49.322;8.536;2023-02-22T22:20:56;21.00;;;15.95;;
19173;SDS011;9719;49.322;8.536;2023-02-22T22:26:03;17.00;;;15.15;;
19173;SDS011;9719;49.322;8.536;2023-02-22T22:31:09;19.92;;;14.88;;
19173;SDS011;9719;49.322;8.536;2023-02-22T22:36:13;18.30;;;14.25;;
19173;SDS011;9719;49.322;8.536;2023-02-22T22:41:18;24.50;;;17.48;;
19173;SDS011;9719;49.322;8.536;2023-02-22T22:46:20;19.58;;;15.32;;
19173;SDS011;9719;49.322;8.536;2023-02-22T22:51:23;17.98;;;15.57;;
19173;SDS011;9719;49.322;8.536;2023-02-22T22:56:26;17.75;;;15.00;;
19173;SDS011;9719;49.322;8.536;2023-02-22T23:01:28;19.65;;;16.23;;
19173;SDS011;9719;49.322;8.536;2023-02-22T23:06:33;20.38;;;15.93;;
19173;SDS011;9719;49.322;8.536;2023-02-22T23:11:40;27.95;;;17.88;;
19173;SDS011;9719;49.322;8.536;2023-02-22T23:16:43;20.63;;;16.38;;
19173;SDS011;9719;49.322;8.536;2023-02-22T23:21:45;21.83;;;16.05;;
19173;SDS011;9719;49.322;8.536;2023-02-22T23:26:50;20.52;;;16.20;;
19173;SDS011;9719;49.322;8.536;2023-02-22T23:31:51;21.70;;;16.77;;
19173;SDS011;9719;49.322;8.536;2023-02-22T23:36:54;21.42;;;17.17;;
19173;SDS011;9719;49.322;8.536;2023-02-22T23:41:57;22.23;;;17.90;;
19173;SDS011;9719;49.322;8.536;2023-02-22T23:46:59;19.17;;;14.57;;
19173;SDS011;9719;49.322;8.536;2023-02-22T23:52:01;19.80;;;15.75;;
19173;SDS011;9719;49.322;8.536;2023-02-22T23:57:05;19.40;;;14.35;;
